createdAt,value
2023-03-05T00:02:01.473Z,1.08
2023-03-05T00:04:31.377Z,0.50
2023-03-05T00:07:01.303Z,0.50
2023-03-05T00:09:30.461Z,0.45
2023-03-05T00:12:00.206Z,0.50
2023-03-05T00:14:30.030Z,0.38
2023-03-05T00:16:57.793Z,0.50
2023-03-05T00:19:27.376Z,0.50
2023-03-05T00:21:57.259Z,0.40
2023-03-05T00:24:24.993Z,0.40
2023-03-05T00:26:56.456Z,0.40
2023-03-05T00:29:29.570Z,0.40
2023-03-05T00:32:01.456Z,0.53
2023-03-05T00:34:31.710Z,0.60
2023-03-05T00:36:59.520Z,0.40
2023-03-05T00:39:29.456Z,0.60
2023-03-05T00:42:00.335Z,0.60
2023-03-05T00:44:28.055Z,0.40
2023-03-05T00:46:57.804Z,0.50
2023-03-05T00:49:27.829Z,0.40
2023-03-05T00:51:55.556Z,0.68
2023-03-05T00:54:25.371Z,0.40
2023-03-05T00:56:57.398Z,0.47
2023-03-05T00:59:28.445Z,0.50
2023-03-05T01:01:58.400Z,0.60
2023-03-05T01:04:26.176Z,1.00
2023-03-05T01:06:55.891Z,0.60
2023-03-05T01:09:25.271Z,0.60
2023-03-05T01:11:53.087Z,1.67
2023-03-05T01:14:23.981Z,0.40
2023-03-05T01:16:55.056Z,0.80
2023-03-05T01:19:22.866Z,0.40
2023-03-05T01:21:52.548Z,0.93
2023-03-05T01:24:20.363Z,0.57
2023-03-05T01:26:49.355Z,0.50
2023-03-05T01:29:18.970Z,0.63
2023-03-05T01:31:49.129Z,0.43
2023-03-05T01:34:23.286Z,0.52
2023-03-05T01:36:53.182Z,0.60
2023-03-05T01:39:21.299Z,0.63
2023-03-05T01:41:50.876Z,0.40
2023-03-05T01:44:29.192Z,0.40
2023-03-05T01:46:59.434Z,0.50
2023-03-05T01:49:33.616Z,0.32
2023-03-05T01:52:10.876Z,0.40
2023-03-05T01:54:41.458Z,0.30
2023-03-05T01:57:15.414Z,0.40
2023-03-05T01:59:49.568Z,0.50
2023-03-05T02:02:20.251Z,0.67
2023-03-05T02:04:54.414Z,0.50
2023-03-05T02:07:24.633Z,0.60
2023-03-05T02:09:52.608Z,0.57
2023-03-05T02:12:20.472Z,0.40
2023-03-05T02:14:53.359Z,0.30
2023-03-05T02:17:21.759Z,0.60
2023-03-05T02:19:53.887Z,0.30
2023-03-05T02:22:27.636Z,0.47
2023-03-05T02:24:55.399Z,0.30
2023-03-05T02:27:36.682Z,0.30
2023-03-05T02:30:05.015Z,0.40
2023-03-05T02:32:32.977Z,0.70
2023-03-05T02:35:02.655Z,0.40
2023-03-05T02:37:33.766Z,0.50
2023-03-05T02:40:01.995Z,0.33
2023-03-05T02:42:32.821Z,0.50
2023-03-05T02:45:03.200Z,0.43
2023-03-05T02:50:00.728Z,0.50
2023-03-05T02:52:34.336Z,0.30
2023-03-05T02:55:02.192Z,0.40
2023-03-05T02:57:30.030Z,0.40
2023-03-05T03:00:00.013Z,0.60
2023-03-05T03:02:29.719Z,0.30
2023-03-05T03:04:57.487Z,0.50
2023-03-05T03:07:27.477Z,0.40
2023-03-05T03:09:58.494Z,0.60
2023-03-05T03:12:26.241Z,0.53
2023-03-05T03:14:56.179Z,0.30
2023-03-05T03:17:25.744Z,0.38
2023-03-05T03:19:53.507Z,0.50
2023-03-05T03:22:23.397Z,0.40
2023-03-05T03:24:51.502Z,0.52
2023-03-05T03:27:20.581Z,0.40
2023-03-05T03:29:50.570Z,0.47
2023-03-05T03:32:20.289Z,0.40
2023-03-05T03:34:48.452Z,0.43
2023-03-05T03:37:18.415Z,0.40
2023-03-05T03:39:50.169Z,0.60
2023-03-05T03:42:18.371Z,0.40
2023-03-05T03:44:48.074Z,0.37
2023-03-05T03:47:20.245Z,0.63
2023-03-05T03:49:48.118Z,0.40
2023-03-05T03:52:15.922Z,0.40
2023-03-05T03:54:47.714Z,0.43
2023-03-05T03:57:15.481Z,0.30
2023-03-05T03:59:52.526Z,0.30
2023-03-05T04:02:20.277Z,0.40
2023-03-05T04:04:48.330Z,0.30
2023-03-05T04:07:20.082Z,0.50
2023-03-05T04:09:49.983Z,0.50
2023-03-05T04:12:18.644Z,0.70
2023-03-05T04:14:50.490Z,0.43
2023-03-05T04:17:20.388Z,0.60
2023-03-05T04:19:48.146Z,0.30
2023-03-05T04:22:19.689Z,0.37
2023-03-05T04:24:52.046Z,0.40
2023-03-05T04:27:19.786Z,0.50
2023-03-05T04:29:50.888Z,0.33
2023-03-05T04:32:23.285Z,0.30
2023-03-05T04:34:51.177Z,0.57
2023-03-05T04:37:20.860Z,0.40
2023-03-05T04:39:52.901Z,0.60
2023-03-05T04:42:21.198Z,0.30
2023-03-05T04:44:53.004Z,0.50
2023-03-05T04:47:22.955Z,0.40
2023-03-05T04:49:50.700Z,0.50
2023-03-05T04:52:20.547Z,0.30
2023-03-05T04:54:52.394Z,0.38
2023-03-05T04:57:20.162Z,0.30
2023-03-05T04:59:56.476Z,0.40
2023-03-05T05:02:24.346Z,0.43
2023-03-05T05:04:54.337Z,0.30
2023-03-05T05:07:24.358Z,0.75
2023-03-05T05:09:54.556Z,0.30
2023-03-05T05:12:22.326Z,0.57
2023-03-05T05:14:53.555Z,0.40
2023-03-05T05:17:23.149Z,0.43
2023-03-05T05:19:51.060Z,0.50
2023-03-05T05:22:20.969Z,0.30
2023-03-05T05:24:50.579Z,0.43
2023-03-05T05:27:18.425Z,0.30
2023-03-05T05:29:50.302Z,0.87
2023-03-05T05:32:24.811Z,0.40
2023-03-05T05:34:55.618Z,0.30
2023-03-05T05:37:25.697Z,0.50
2023-03-05T05:39:55.839Z,0.57
2023-03-05T05:42:28.103Z,0.90
2023-03-05T05:45:04.833Z,0.40
2023-03-05T05:47:33.964Z,0.30
2023-03-05T05:50:03.884Z,0.40
2023-03-05T05:52:33.663Z,0.40
2023-03-05T05:55:01.426Z,0.40
2023-03-05T05:57:36.662Z,0.50
2023-03-05T06:00:07.376Z,0.47
2023-03-05T06:02:40.882Z,0.40
2023-03-05T06:05:10.827Z,0.47
2023-03-05T06:07:40.750Z,0.47
2023-03-05T06:10:13.561Z,0.40
2023-03-05T06:12:44.285Z,0.60
2023-03-05T06:15:12.295Z,0.83
2023-03-05T06:17:48.618Z,0.40
2023-03-05T06:20:19.329Z,0.93
2023-03-05T06:22:49.270Z,0.20
2023-03-05T06:25:18.926Z,0.52
2023-03-05T06:27:48.790Z,0.50
2023-03-05T06:30:16.786Z,0.68
2023-03-05T06:32:47.874Z,0.40
2023-03-05T06:35:19.019Z,0.40
2023-03-05T06:37:47.031Z,0.60
2023-03-05T06:40:17.655Z,0.47
2023-03-05T06:42:47.596Z,0.57
2023-03-05T06:45:15.848Z,0.38
2023-03-05T06:47:46.850Z,0.47
2023-03-05T06:50:14.979Z,0.60
2023-03-05T06:52:43.492Z,0.40
2023-03-05T06:55:11.608Z,0.77
2023-03-05T06:57:39.428Z,0.50
2023-03-05T07:00:10.136Z,0.53
2023-03-05T07:02:40.227Z,0.50
2023-03-05T07:05:10.100Z,0.50
2023-03-05T07:07:38.212Z,0.43
2023-03-05T07:10:09.849Z,0.73
2023-03-05T07:12:39.774Z,0.30
2023-03-05T07:15:15.326Z,0.50
2023-03-05T07:17:43.117Z,0.50
2023-03-05T07:20:14.895Z,0.40
2023-03-05T07:22:44.618Z,0.20
2023-03-05T07:25:12.565Z,0.40
2023-03-05T07:27:45.069Z,0.40
2023-03-05T07:30:15.913Z,0.30
2023-03-05T07:32:48.075Z,0.47
2023-03-05T07:35:19.210Z,0.40
2023-03-05T07:37:49.160Z,0.40
2023-03-05T07:40:17.279Z,0.35
2023-03-05T07:42:46.866Z,0.40
2023-03-05T07:45:14.947Z,0.40
2023-03-05T07:47:42.667Z,0.70
2023-03-05T07:52:45.838Z,0.40
2023-03-05T07:55:13.846Z,0.57
2023-03-05T07:57:43.724Z,0.40
2023-03-05T08:00:12.822Z,0.50
2023-03-05T08:02:40.636Z,0.40
2023-03-05T08:05:09.203Z,0.30
2023-03-05T08:07:38.850Z,0.60
2023-03-05T08:10:09.955Z,0.50
2023-03-05T08:12:37.868Z,0.70
2023-03-05T08:15:06.562Z,1.13
2023-03-05T08:17:34.412Z,0.50
2023-03-05T08:20:05.500Z,0.57
2023-03-05T08:22:35.203Z,0.50
2023-03-05T08:25:04.083Z,0.60
2023-03-05T08:27:33.844Z,0.40
2023-03-05T08:30:03.214Z,0.50
2023-03-05T08:32:30.975Z,0.40
2023-03-05T08:34:59.181Z,0.50
2023-03-05T08:37:28.815Z,0.40
2023-03-05T08:39:56.880Z,1.05
2023-03-05T08:42:26.773Z,0.30
2023-03-05T08:44:57.713Z,0.35
2023-03-05T08:47:26.918Z,0.53
2023-03-05T08:49:57.626Z,0.70
2023-03-05T08:52:29.138Z,0.53
2023-03-05T08:54:57.057Z,0.53
2023-03-05T08:57:24.865Z,0.67
2023-03-05T08:59:54.715Z,0.50
2023-03-05T09:02:25.624Z,0.40
2023-03-05T09:04:53.386Z,0.80
2023-03-05T09:07:21.200Z,0.30
2023-03-05T09:09:51.132Z,0.63
2023-03-05T09:12:18.863Z,0.40
2023-03-05T09:14:48.733Z,0.50
2023-03-05T09:17:16.762Z,0.75
2023-03-05T09:19:45.876Z,0.97
2023-03-05T09:22:15.782Z,0.40
2023-03-05T09:24:45.607Z,0.40
2023-03-05T09:27:14.902Z,0.40
2023-03-05T09:29:44.889Z,0.73
2023-03-05T09:32:14.939Z,0.40
2023-03-05T09:34:42.840Z,0.60
2023-03-05T09:37:13.862Z,0.30
2023-03-05T09:39:43.736Z,0.50
2023-03-05T09:42:31.464Z,0.70
2023-03-05T09:45:10.679Z,0.83
2023-03-05T09:47:55.591Z,0.60
2023-03-05T09:50:45.568Z,0.53
2023-03-05T09:53:22.352Z,0.60
2023-03-05T09:55:54.845Z,0.70
2023-03-05T09:58:32.313Z,0.40
2023-03-05T10:01:03.604Z,0.60
2023-03-05T10:03:47.407Z,0.70
2023-03-05T10:06:24.008Z,0.73
2023-03-05T10:08:59.754Z,0.57
2023-03-05T10:11:46.395Z,0.50
2023-03-05T10:14:17.516Z,0.53
2023-03-05T10:17:04.031Z,0.43
2023-03-05T10:20:07.152Z,0.50
2023-03-05T10:22:43.168Z,0.40
2023-03-05T10:25:26.695Z,0.50
2023-03-05T10:28:00.129Z,0.33
2023-03-05T10:30:54.560Z,0.60
2023-03-05T10:33:33.596Z,0.30
2023-03-05T10:36:32.104Z,0.30
2023-03-05T10:39:32.841Z,0.50
2023-03-05T10:42:12.521Z,0.50
2023-03-05T10:44:45.905Z,0.47
2023-03-05T10:47:19.140Z,0.70
2023-03-05T10:49:52.073Z,0.50
2023-03-05T10:52:25.625Z,0.40
2023-03-05T10:54:55.480Z,0.40
2023-03-05T10:57:26.478Z,0.70
2023-03-05T10:59:56.549Z,0.43
2023-03-05T11:02:26.410Z,0.40
2023-03-05T11:04:55.232Z,0.38
2023-03-05T11:07:39.268Z,0.40
2023-03-05T11:10:19.391Z,0.67
2023-03-05T11:12:50.708Z,0.40
2023-03-05T11:15:28.577Z,0.50
2023-03-05T11:18:21.185Z,0.43
2023-03-05T11:20:49.547Z,0.60
2023-03-05T11:23:20.639Z,0.57
2023-03-05T11:26:18.314Z,0.53
2023-03-05T11:28:59.523Z,0.40
2023-03-05T11:31:31.176Z,0.40
2023-03-05T11:34:02.058Z,0.40
2023-03-05T11:36:33.561Z,0.40
2023-03-05T11:39:11.676Z,0.60
2023-03-05T11:41:44.306Z,0.30
2023-03-05T11:44:18.642Z,0.50
2023-03-05T11:46:49.483Z,0.40
2023-03-05T11:49:22.414Z,0.50
2023-03-05T11:51:59.893Z,0.30
2023-03-05T11:54:34.652Z,0.40
2023-03-05T11:57:04.830Z,0.40
2023-03-05T11:59:39.650Z,0.50
2023-03-05T12:02:19.633Z,0.30
2023-03-05T12:04:49.465Z,0.50
2023-03-05T12:07:22.244Z,0.30
2023-03-05T12:09:52.060Z,0.50
2023-03-05T12:12:36.099Z,0.43
2023-03-05T12:15:26.812Z,0.60
2023-03-05T12:18:06.808Z,0.30
2023-03-05T12:20:43.358Z,0.80
2023-03-05T12:23:15.919Z,0.40
2023-03-05T12:25:48.608Z,0.40
2023-03-05T12:28:18.291Z,0.50
2023-03-05T12:30:58.920Z,0.30
2023-03-05T12:33:40.169Z,0.57
2023-03-05T12:36:33.615Z,0.40
2023-03-05T12:39:03.550Z,0.30
2023-03-05T12:41:37.140Z,0.40
2023-03-05T12:44:19.257Z,0.50
2023-03-05T12:47:18.380Z,0.50
2023-03-05T12:49:48.451Z,0.40
2023-03-05T12:52:24.530Z,0.60
2023-03-05T12:55:18.220Z,0.40
2023-03-05T12:57:50.900Z,0.43
2023-03-05T13:00:23.671Z,0.50
2023-03-05T13:02:59.536Z,0.50
2023-03-05T13:05:32.730Z,0.70
2023-03-05T13:08:22.292Z,3.43
2023-03-05T13:10:57.041Z,0.67
2023-03-05T13:13:29.606Z,0.80
2023-03-05T13:16:00.167Z,0.50
2023-03-05T13:18:32.634Z,0.30
2023-03-05T13:21:06.340Z,0.60
2023-03-05T13:23:36.674Z,0.40
2023-03-05T13:26:14.754Z,0.32
2023-03-05T13:28:45.014Z,0.60
2023-03-05T13:31:18.766Z,0.60
2023-03-05T13:33:56.801Z,0.47
2023-03-05T13:36:27.203Z,0.33
2023-03-05T13:38:55.811Z,0.43
2023-03-05T13:41:25.683Z,0.40
2023-03-05T13:43:58.235Z,0.45
2023-03-05T13:46:30.350Z,0.30
2023-03-05T13:49:20.347Z,0.43
2023-03-05T13:51:53.296Z,0.63
2023-03-05T13:54:23.061Z,0.50
2023-03-05T13:56:56.547Z,0.57
2023-03-05T13:59:27.588Z,0.73
2023-03-05T14:01:59.149Z,0.50
2023-03-05T14:04:34.041Z,0.70
2023-03-05T14:07:06.070Z,0.50
2023-03-05T14:09:49.242Z,0.50
2023-03-05T14:12:27.506Z,0.40
2023-03-05T14:14:59.393Z,4.87
2023-03-05T14:17:40.687Z,1.50
2023-03-05T14:20:24.197Z,1.10
2023-03-05T14:22:53.958Z,0.30
2023-03-05T14:25:37.714Z,0.50
2023-03-05T14:28:07.125Z,0.60
2023-03-05T14:30:37.852Z,0.40
2023-03-05T14:33:07.990Z,0.70
2023-03-05T14:35:38.030Z,0.40
2023-03-05T14:38:08.328Z,0.55
2023-03-05T14:40:38.008Z,0.70
2023-03-05T14:43:07.109Z,0.50
2023-03-05T14:45:37.401Z,0.37
2023-03-05T14:48:07.405Z,0.30
2023-03-05T14:50:39.351Z,0.60
2023-03-05T14:53:10.724Z,2.17
2023-03-05T14:55:39.286Z,0.93
2023-03-05T14:58:13.571Z,0.83
2023-03-05T15:00:42.043Z,0.77
2023-03-05T15:03:11.782Z,1.10
2023-03-05T15:05:43.806Z,0.80
2023-03-05T15:08:15.761Z,0.50
2023-03-05T15:10:45.765Z,0.60
2023-03-05T15:13:15.788Z,0.55
2023-03-05T15:15:45.086Z,0.77
2023-03-05T15:18:15.012Z,0.63
2023-03-05T15:20:46.011Z,0.60
2023-03-05T15:23:15.588Z,0.57
2023-03-05T15:25:44.030Z,0.50
2023-03-05T15:28:12.272Z,0.60
2023-03-05T15:30:43.026Z,0.60
2023-03-05T15:33:17.272Z,0.83
2023-03-05T15:35:46.645Z,1.00
2023-03-05T15:38:15.309Z,0.50
2023-03-05T15:40:44.269Z,0.57
2023-03-05T15:43:12.249Z,0.70
2023-03-05T15:45:42.299Z,0.60
2023-03-05T15:48:12.404Z,0.70
2023-03-05T15:50:43.065Z,0.70
2023-03-05T15:53:17.561Z,3.90
2023-03-05T15:55:46.073Z,0.80
2023-03-05T15:58:17.802Z,5.00
2023-03-05T16:00:47.626Z,0.70
2023-03-05T16:03:15.796Z,0.70
2023-03-05T16:05:45.812Z,1.17
2023-03-05T16:08:16.863Z,0.50
2023-03-05T16:10:44.714Z,0.60
2023-03-05T16:13:21.738Z,0.70
2023-03-05T16:15:53.067Z,0.87
2023-03-05T16:18:21.504Z,0.60
2023-03-05T16:20:49.601Z,1.03
2023-03-05T16:23:19.047Z,0.60
2023-03-05T16:25:47.242Z,0.70
2023-03-05T16:28:15.174Z,0.77
2023-03-05T16:30:42.951Z,0.53
2023-03-05T16:33:13.221Z,0.70
2023-03-05T16:35:41.090Z,0.77
2023-03-05T16:38:09.091Z,0.40
2023-03-05T16:41:06.253Z,0.33
2023-03-05T16:43:28.651Z,0.30
2023-03-05T16:46:00.575Z,0.50
2023-03-05T16:48:30.667Z,0.60
2023-03-05T16:51:04.494Z,0.50
2023-03-05T16:53:32.790Z,0.47
2023-03-05T16:56:05.221Z,0.70
2023-03-05T16:58:34.376Z,2.33
2023-03-05T17:01:02.912Z,0.70
2023-03-05T17:03:34.928Z,1.00
2023-03-05T17:06:02.754Z,1.00
2023-03-05T17:08:30.511Z,1.40
2023-03-05T17:10:58.305Z,0.60
2023-03-05T17:13:29.335Z,0.50
2023-03-05T17:15:57.682Z,0.80
2023-03-05T17:18:27.532Z,0.60
2023-03-05T17:20:57.442Z,0.55
2023-03-05T17:23:25.827Z,0.43
2023-03-05T17:25:55.658Z,0.40
2023-03-05T17:28:25.182Z,0.50
2023-03-05T17:30:55.352Z,0.75
2023-03-05T17:33:56.060Z,0.77
2023-03-05T17:36:24.888Z,0.60
2023-03-05T17:38:52.771Z,0.97
2023-03-05T17:41:25.008Z,0.90
2023-03-05T17:43:52.822Z,0.80
2023-03-05T17:46:24.877Z,0.50
2023-03-05T17:48:56.798Z,0.60
2023-03-05T17:51:28.786Z,1.10
2023-03-05T17:53:58.763Z,1.10
2023-03-05T17:56:26.827Z,1.48
2023-03-05T17:58:56.923Z,0.70
2023-03-05T18:01:31.258Z,0.68
2023-03-05T18:04:01.513Z,0.60
2023-03-05T18:06:30.467Z,1.45
2023-03-05T18:09:00.188Z,0.60
2023-03-05T18:11:30.206Z,0.77
2023-03-05T18:13:58.259Z,0.95
2023-03-05T18:16:34.048Z,0.77
2023-03-05T18:19:01.875Z,0.60
2023-03-05T18:21:32.035Z,0.50
2023-03-05T18:24:01.680Z,0.50
2023-03-05T18:26:29.363Z,0.88
2023-03-05T18:28:59.353Z,0.77
2023-03-05T18:31:28.668Z,0.70
2023-03-05T18:33:56.527Z,0.67
2023-03-05T18:36:24.441Z,0.90
2023-03-05T18:38:52.446Z,0.60
2023-03-05T18:41:22.590Z,0.70
2023-03-05T18:43:50.699Z,0.63
2023-03-05T18:46:20.955Z,0.53
2023-03-05T18:48:50.182Z,0.63
2023-03-05T18:51:21.629Z,0.70
2023-03-05T18:53:50.440Z,0.90
2023-03-05T18:56:18.203Z,0.90
2023-03-05T18:58:48.421Z,0.90
2023-03-05T19:01:17.677Z,3.45
2023-03-05T19:03:45.839Z,2.30
2023-03-05T19:06:17.743Z,3.87
2023-03-05T19:08:48.352Z,4.37
2023-03-05T19:11:17.944Z,3.10
2023-03-05T19:13:49.052Z,1.23
2023-03-05T19:16:22.582Z,1.67
2023-03-05T19:18:59.799Z,1.10
2023-03-05T19:21:32.980Z,1.17
2023-03-05T19:24:00.805Z,0.80
2023-03-05T19:26:28.608Z,0.90
2023-03-05T19:29:00.534Z,0.67
2023-03-05T19:31:28.235Z,1.00
2023-03-05T19:33:56.308Z,1.00
2023-03-05T19:37:34.758Z,0.70
2023-03-05T19:40:04.420Z,1.20
2023-03-05T19:42:35.946Z,1.63
2023-03-05T19:45:03.889Z,1.30
2023-03-05T19:47:31.677Z,1.00
2023-03-05T19:50:01.367Z,1.00
2023-03-05T19:52:29.168Z,1.35
2023-03-05T19:54:57.061Z,0.90
2023-03-05T19:57:28.441Z,1.00
2023-03-05T19:59:56.167Z,0.80
2023-03-05T20:02:24.014Z,0.70
2023-03-05T20:04:52.197Z,0.87
2023-03-05T20:07:19.994Z,1.00
2023-03-05T20:09:48.898Z,0.80
2023-03-05T20:12:16.917Z,0.80
2023-03-05T20:14:46.011Z,1.10
2023-03-05T20:17:13.832Z,0.60
2023-03-05T20:19:43.946Z,1.33
2023-03-05T20:22:11.770Z,1.13
2023-03-05T20:24:39.508Z,2.70
2023-03-05T20:27:09.512Z,3.47
2023-03-05T20:29:39.490Z,3.90
2023-03-05T20:32:08.613Z,3.00
2023-03-05T20:34:38.261Z,1.90
2023-03-05T20:37:08.604Z,10.55
2023-03-05T20:42:05.770Z,7.07
2023-03-05T20:44:35.714Z,8.02
2023-03-05T20:47:17.977Z,2.08
2023-03-05T20:50:11.371Z,2.27
2023-03-05T20:52:39.580Z,3.70
2023-03-05T20:55:08.267Z,4.07
2023-03-05T20:57:36.092Z,7.03
2023-03-05T21:00:06.756Z,1.33
2023-03-05T21:02:36.739Z,5.53
2023-03-05T21:05:06.599Z,4.47
2023-03-05T21:07:36.701Z,2.55
2023-03-05T21:10:05.376Z,9.80
2023-03-05T21:12:33.692Z,3.60
2023-03-05T21:15:05.574Z,1.17
2023-03-05T21:17:33.465Z,1.80
2023-03-05T21:20:01.974Z,1.37
2023-03-05T21:22:31.287Z,2.83
2023-03-05T21:25:04.533Z,2.60
2023-03-05T21:27:32.531Z,2.40
2023-03-05T21:30:00.423Z,2.17
2023-03-05T21:32:28.192Z,2.83
2023-03-05T21:35:00.514Z,2.40
2023-03-05T21:37:28.404Z,2.37
2023-03-05T21:39:57.464Z,2.20
2023-03-05T21:42:25.359Z,1.30
2023-03-05T21:44:53.127Z,1.37
2023-03-05T21:47:20.901Z,1.83
2023-03-05T21:49:54.328Z,1.50
2023-03-05T21:52:22.420Z,0.90
2023-03-05T21:54:50.165Z,1.23
2023-03-05T21:57:19.464Z,1.67
2023-03-05T21:59:47.429Z,0.93
2023-03-05T22:02:16.835Z,1.00
2023-03-05T22:04:49.561Z,1.00
2023-03-05T22:07:19.112Z,0.80
2023-03-05T22:09:54.451Z,0.98
2023-03-05T22:12:33.420Z,1.10
2023-03-05T22:15:01.610Z,0.93
2023-03-05T22:17:29.394Z,0.80
2023-03-05T22:19:57.450Z,0.90
2023-03-05T22:22:29.353Z,1.00
2023-03-05T22:24:57.051Z,0.87
2023-03-05T22:27:26.095Z,0.77
2023-03-05T22:29:56.146Z,1.10
2023-03-05T22:32:23.944Z,0.70
2023-03-05T22:34:55.897Z,0.70
2023-03-05T22:37:25.692Z,0.70
2023-03-05T22:39:55.696Z,0.80
2023-03-05T22:42:23.849Z,1.40
2023-03-05T22:44:59.191Z,2.03
2023-03-05T22:47:28.688Z,1.50
2023-03-05T22:49:58.672Z,2.78
2023-03-05T22:52:28.414Z,2.72
2023-03-05T22:54:56.175Z,1.33
2023-03-05T22:57:26.271Z,1.70
2023-03-05T22:59:57.233Z,0.82
2023-03-05T23:02:24.960Z,0.50
2023-03-05T23:04:57.635Z,0.90
2023-03-05T23:07:30.200Z,0.73
2023-03-05T23:10:01.905Z,1.27
2023-03-05T23:12:34.337Z,0.60
2023-03-05T23:15:08.079Z,0.80
2023-03-05T23:17:37.906Z,1.27
2023-03-05T23:20:11.569Z,0.70
2023-03-05T23:22:40.818Z,1.10
2023-03-05T23:25:12.443Z,1.00
2023-03-05T23:27:40.174Z,0.70
2023-03-05T23:30:18.378Z,0.70
2023-03-05T23:32:51.286Z,0.80
2023-03-05T23:35:24.059Z,1.07
2023-03-05T23:37:55.110Z,0.80
2023-03-05T23:40:27.522Z,0.87
2023-03-05T23:42:57.545Z,0.70
2023-03-05T23:45:27.438Z,0.85
2023-03-05T23:47:57.107Z,0.80
2023-03-05T23:50:30.321Z,0.88
2023-03-05T23:53:01.968Z,1.40
2023-03-05T23:55:35.525Z,1.20
2023-03-05T23:58:05.893Z,1.00
